sensor_id;sensor_type;location;lat;lon;timestamp;P1;durP1;ratioP1;P2;durP2;ratioP2
38725;SDS011;24474;48.906;8.808;2023-03-02T00:00:41;26.42;;;18.38;;
38725;SDS011;24474;48.906;8.808;2023-03-02T00:03:09;28.23;;;18.40;;
38725;SDS011;24474;48.906;8.808;2023-03-02T00:05:36;28.77;;;18.85;;
38725;SDS011;24474;48.906;8.808;2023-03-02T00:08:02;27.52;;;17.85;;
38725;SDS011;24474;48.906;8.808;2023-03-02T00:10:29;27.40;;;18.73;;
38725;SDS011;24474;48.906;8.808;2023-03-02T00:12:56;27.27;;;18.45;;
38725;SDS011;24474;48.906;8.808;2023-03-02T00:15:23;28.73;;;19.00;;
38725;SDS011;24474;48.906;8.808;2023-03-02T00:17:48;27.83;;;19.25;;
38725;SDS011;24474;48.906;8.808;2023-03-02T00:20:14;33.20;;;20.13;;
38725;SDS011;24474;48.906;8.808;2023-03-02T00:22:41;28.27;;;19.35;;
38725;SDS011;24474;48.906;8.808;2023-03-02T00:25:09;29.67;;;19.85;;
38725;SDS011;24474;48.906;8.808;2023-03-02T00:27:35;28.75;;;19.20;;
38725;SDS011;24474;48.906;8.808;2023-03-02T00:30:01;29.13;;;20.17;;
38725;SDS011;24474;48.906;8.808;2023-03-02T00:32:27;27.85;;;18.20;;
38725;SDS011;24474;48.906;8.808;2023-03-02T00:34:53;28.08;;;19.40;;
38725;SDS011;24474;48.906;8.808;2023-03-02T00:37:19;30.52;;;20.48;;
38725;SDS011;24474;48.906;8.808;2023-03-02T00:39:45;27.27;;;19.65;;
38725;SDS011;24474;48.906;8.808;2023-03-02T00:42:11;30.15;;;20.08;;
38725;SDS011;24474;48.906;8.808;2023-03-02T00:44:36;31.38;;;20.75;;
38725;SDS011;24474;48.906;8.808;2023-03-02T00:47:02;30.00;;;20.30;;
38725;SDS011;24474;48.906;8.808;2023-03-02T00:49:27;29.55;;;20.13;;
38725;SDS011;24474;48.906;8.808;2023-03-02T00:51:53;29.58;;;19.45;;
38725;SDS011;24474;48.906;8.808;2023-03-02T00:54:19;27.00;;;19.65;;
38725;SDS011;24474;48.906;8.808;2023-03-02T00:56:45;30.75;;;19.48;;
38725;SDS011;24474;48.906;8.808;2023-03-02T00:59:11;30.00;;;19.48;;
38725;SDS011;24474;48.906;8.808;2023-03-02T01:01:50;30.92;;;20.50;;
38725;SDS011;24474;48.906;8.808;2023-03-02T01:04:24;29.00;;;19.45;;
38725;SDS011;24474;48.906;8.808;2023-03-02T01:06:53;29.25;;;19.05;;
38725;SDS011;24474;48.906;8.808;2023-03-02T01:09:23;30.38;;;19.23;;
38725;SDS011;24474;48.906;8.808;2023-03-02T01:11:49;30.77;;;19.88;;
38725;SDS011;24474;48.906;8.808;2023-03-02T01:14:15;30.65;;;20.85;;
38725;SDS011;24474;48.906;8.808;2023-03-02T01:16:41;31.02;;;20.95;;
38725;SDS011;24474;48.906;8.808;2023-03-02T01:19:07;30.50;;;20.63;;
38725;SDS011;24474;48.906;8.808;2023-03-02T01:21:32;29.98;;;21.02;;
38725;SDS011;24474;48.906;8.808;2023-03-02T01:23:58;29.63;;;20.50;;
38725;SDS011;24474;48.906;8.808;2023-03-02T01:26:24;30.58;;;21.10;;
38725;SDS011;24474;48.906;8.808;2023-03-02T01:28:50;34.17;;;22.88;;
38725;SDS011;24474;48.906;8.808;2023-03-02T01:31:19;29.77;;;21.27;;
38725;SDS011;24474;48.906;8.808;2023-03-02T01:33:46;35.90;;;23.05;;
38725;SDS011;24474;48.906;8.808;2023-03-02T01:36:13;31.92;;;21.38;;
38725;SDS011;24474;48.906;8.808;2023-03-02T01:38:39;33.55;;;21.38;;
38725;SDS011;24474;48.906;8.808;2023-03-02T01:41:04;35.13;;;22.33;;
38725;SDS011;24474;48.906;8.808;2023-03-02T01:43:33;37.60;;;23.52;;
38725;SDS011;24474;48.906;8.808;2023-03-02T01:46:05;33.10;;;22.98;;
38725;SDS011;24474;48.906;8.808;2023-03-02T01:51:29;35.38;;;23.58;;
38725;SDS011;24474;48.906;8.808;2023-03-02T01:54:10;34.67;;;23.52;;
38725;SDS011;24474;48.906;8.808;2023-03-02T01:56:41;31.58;;;21.83;;
38725;SDS011;24474;48.906;8.808;2023-03-02T01:59:13;35.70;;;22.38;;
38725;SDS011;24474;48.906;8.808;2023-03-02T02:01:43;36.00;;;23.90;;
38725;SDS011;24474;48.906;8.808;2023-03-02T02:04:11;34.67;;;23.33;;
38725;SDS011;24474;48.906;8.808;2023-03-02T02:06:38;35.63;;;22.88;;
38725;SDS011;24474;48.906;8.808;2023-03-02T02:09:09;34.70;;;23.73;;
38725;SDS011;24474;48.906;8.808;2023-03-02T02:11:38;35.50;;;24.55;;
38725;SDS011;24474;48.906;8.808;2023-03-02T02:14:04;36.67;;;25.15;;
38725;SDS011;24474;48.906;8.808;2023-03-02T02:16:31;37.45;;;24.15;;
38725;SDS011;24474;48.906;8.808;2023-03-02T02:18:58;35.22;;;23.70;;
38725;SDS011;24474;48.906;8.808;2023-03-02T02:21:25;36.97;;;24.45;;
38725;SDS011;24474;48.906;8.808;2023-03-02T02:24:12;33.25;;;22.33;;
38725;SDS011;24474;48.906;8.808;2023-03-02T02:26:48;37.72;;;25.17;;
38725;SDS011;24474;48.906;8.808;2023-03-02T02:29:17;34.90;;;24.75;;
38725;SDS011;24474;48.906;8.808;2023-03-02T02:34:36;37.33;;;24.08;;
38725;SDS011;24474;48.906;8.808;2023-03-02T02:37:17;39.05;;;24.65;;
38725;SDS011;24474;48.906;8.808;2023-03-02T02:39:47;36.45;;;23.00;;
38725;SDS011;24474;48.906;8.808;2023-03-02T02:42:15;35.70;;;23.45;;
38725;SDS011;24474;48.906;8.808;2023-03-02T02:44:44;37.33;;;23.80;;
38725;SDS011;24474;48.906;8.808;2023-03-02T02:47:14;39.22;;;23.90;;
38725;SDS011;24474;48.906;8.808;2023-03-02T02:52:09;38.63;;;23.95;;
38725;SDS011;24474;48.906;8.808;2023-03-02T02:54:38;36.15;;;23.48;;
38725;SDS011;24474;48.906;8.808;2023-03-02T02:57:04;37.00;;;22.70;;
38725;SDS011;24474;48.906;8.808;2023-03-02T02:59:32;35.83;;;22.77;;
38725;SDS011;24474;48.906;8.808;2023-03-02T03:02:01;35.20;;;23.47;;
38725;SDS011;24474;48.906;8.808;2023-03-02T03:04:28;33.30;;;23.08;;
38725;SDS011;24474;48.906;8.808;2023-03-02T03:06:57;38.97;;;25.50;;
38725;SDS011;24474;48.906;8.808;2023-03-02T03:09:30;35.33;;;22.95;;
38725;SDS011;24474;48.906;8.808;2023-03-02T03:11:59;37.00;;;23.42;;
38725;SDS011;24474;48.906;8.808;2023-03-02T03:14:29;37.95;;;23.75;;
38725;SDS011;24474;48.906;8.808;2023-03-02T03:19:26;32.58;;;21.55;;
38725;SDS011;24474;48.906;8.808;2023-03-02T03:21:55;34.88;;;23.23;;
38725;SDS011;24474;48.906;8.808;2023-03-02T03:24:23;34.95;;;23.48;;
38725;SDS011;24474;48.906;8.808;2023-03-02T03:26:50;38.80;;;24.58;;
38725;SDS011;24474;48.906;8.808;2023-03-02T03:29:18;37.30;;;23.50;;
38725;SDS011;24474;48.906;8.808;2023-03-02T03:31:48;37.28;;;24.15;;
38725;SDS011;24474;48.906;8.808;2023-03-02T03:34:18;36.97;;;24.25;;
38725;SDS011;24474;48.906;8.808;2023-03-02T03:36:44;39.33;;;23.83;;
38725;SDS011;24474;48.906;8.808;2023-03-02T03:39:15;38.10;;;25.50;;
38725;SDS011;24474;48.906;8.808;2023-03-02T03:41:41;38.05;;;24.98;;
38725;SDS011;24474;48.906;8.808;2023-03-02T03:44:07;37.13;;;25.00;;
38725;SDS011;24474;48.906;8.808;2023-03-02T03:46:34;36.85;;;24.92;;
38725;SDS011;24474;48.906;8.808;2023-03-02T03:49:00;41.85;;;25.75;;
38725;SDS011;24474;48.906;8.808;2023-03-02T03:51:26;39.60;;;25.73;;
38725;SDS011;24474;48.906;8.808;2023-03-02T03:53:51;43.20;;;27.92;;
38725;SDS011;24474;48.906;8.808;2023-03-02T03:56:27;44.05;;;27.42;;
38725;SDS011;24474;48.906;8.808;2023-03-02T03:58:55;40.65;;;25.85;;
38725;SDS011;24474;48.906;8.808;2023-03-02T04:01:33;39.72;;;25.25;;
38725;SDS011;24474;48.906;8.808;2023-03-02T04:04:14;38.83;;;25.17;;
38725;SDS011;24474;48.906;8.808;2023-03-02T04:06:43;40.47;;;24.73;;
38725;SDS011;24474;48.906;8.808;2023-03-02T04:09:09;34.20;;;23.02;;
38725;SDS011;24474;48.906;8.808;2023-03-02T04:11:39;40.13;;;24.13;;
38725;SDS011;24474;48.906;8.808;2023-03-02T04:14:22;38.45;;;24.20;;
38725;SDS011;24474;48.906;8.808;2023-03-02T04:16:48;36.65;;;24.65;;
38725;SDS011;24474;48.906;8.808;2023-03-02T04:19:14;39.30;;;24.45;;
38725;SDS011;24474;48.906;8.808;2023-03-02T04:21:46;38.80;;;24.02;;
38725;SDS011;24474;48.906;8.808;2023-03-02T04:24:13;34.78;;;24.00;;
38725;SDS011;24474;48.906;8.808;2023-03-02T04:26:40;36.72;;;23.17;;
38725;SDS011;24474;48.906;8.808;2023-03-02T04:29:07;38.92;;;25.55;;
38725;SDS011;24474;48.906;8.808;2023-03-02T04:31:33;37.67;;;24.67;;
38725;SDS011;24474;48.906;8.808;2023-03-02T04:33:59;36.55;;;23.77;;
38725;SDS011;24474;48.906;8.808;2023-03-02T04:36:28;34.92;;;23.30;;
38725;SDS011;24474;48.906;8.808;2023-03-02T04:38:54;35.92;;;23.40;;
38725;SDS011;24474;48.906;8.808;2023-03-02T04:41:20;34.03;;;22.85;;
38725;SDS011;24474;48.906;8.808;2023-03-02T04:43:46;36.80;;;23.80;;
38725;SDS011;24474;48.906;8.808;2023-03-02T04:46:13;39.92;;;25.70;;
38725;SDS011;24474;48.906;8.808;2023-03-02T04:48:42;35.22;;;23.92;;
38725;SDS011;24474;48.906;8.808;2023-03-02T04:51:10;36.10;;;23.90;;
38725;SDS011;24474;48.906;8.808;2023-03-02T04:53:48;38.25;;;23.73;;
38725;SDS011;24474;48.906;8.808;2023-03-02T04:56:18;38.80;;;24.50;;
38725;SDS011;24474;48.906;8.808;2023-03-02T04:58:44;38.15;;;24.05;;
38725;SDS011;24474;48.906;8.808;2023-03-02T05:01:11;40.13;;;24.77;;
38725;SDS011;24474;48.906;8.808;2023-03-02T05:03:41;39.05;;;24.45;;
38725;SDS011;24474;48.906;8.808;2023-03-02T05:06:07;39.47;;;24.77;;
38725;SDS011;24474;48.906;8.808;2023-03-02T05:08:34;38.45;;;25.50;;
38725;SDS011;24474;48.906;8.808;2023-03-02T05:11:00;37.15;;;24.02;;
38725;SDS011;24474;48.906;8.808;2023-03-02T05:13:26;35.80;;;23.95;;
38725;SDS011;24474;48.906;8.808;2023-03-02T05:15:52;38.40;;;24.25;;
38725;SDS011;24474;48.906;8.808;2023-03-02T05:18:18;39.08;;;24.17;;
38725;SDS011;24474;48.906;8.808;2023-03-02T05:20:44;35.03;;;22.80;;
38725;SDS011;24474;48.906;8.808;2023-03-02T05:23:10;37.75;;;23.58;;
38725;SDS011;24474;48.906;8.808;2023-03-02T05:25:48;37.67;;;23.73;;
38725;SDS011;24474;48.906;8.808;2023-03-02T05:28:15;41.28;;;25.02;;
38725;SDS011;24474;48.906;8.808;2023-03-02T05:30:42;38.97;;;24.25;;
38725;SDS011;24474;48.906;8.808;2023-03-02T05:33:07;35.05;;;24.02;;
38725;SDS011;24474;48.906;8.808;2023-03-02T05:35:33;38.30;;;25.13;;
38725;SDS011;24474;48.906;8.808;2023-03-02T05:37:59;43.60;;;27.35;;
38725;SDS011;24474;48.906;8.808;2023-03-02T05:40:27;44.78;;;28.50;;
38725;SDS011;24474;48.906;8.808;2023-03-02T05:42:53;46.85;;;28.35;;
38725;SDS011;24474;48.906;8.808;2023-03-02T05:45:23;49.40;;;30.63;;
38725;SDS011;24474;48.906;8.808;2023-03-02T05:47:50;55.08;;;31.17;;
38725;SDS011;24474;48.906;8.808;2023-03-02T05:50:16;53.20;;;31.15;;
38725;SDS011;24474;48.906;8.808;2023-03-02T05:52:42;48.50;;;28.95;;
38725;SDS011;24474;48.906;8.808;2023-03-02T05:55:09;48.28;;;28.88;;
38725;SDS011;24474;48.906;8.808;2023-03-02T05:57:38;52.85;;;31.00;;
38725;SDS011;24474;48.906;8.808;2023-03-02T06:00:06;49.55;;;29.30;;
38725;SDS011;24474;48.906;8.808;2023-03-02T06:02:33;52.30;;;29.70;;
38725;SDS011;24474;48.906;8.808;2023-03-02T06:04:59;53.58;;;31.88;;
38725;SDS011;24474;48.906;8.808;2023-03-02T06:07:26;64.18;;;38.08;;
38725;SDS011;24474;48.906;8.808;2023-03-02T06:09:54;59.85;;;34.42;;
38725;SDS011;24474;48.906;8.808;2023-03-02T06:12:22;54.63;;;33.00;;
38725;SDS011;24474;48.906;8.808;2023-03-02T06:14:50;58.75;;;32.45;;
38725;SDS011;24474;48.906;8.808;2023-03-02T06:17:16;51.05;;;30.50;;
38725;SDS011;24474;48.906;8.808;2023-03-02T06:19:42;45.50;;;29.20;;
38725;SDS011;24474;48.906;8.808;2023-03-02T06:22:07;37.97;;;25.48;;
38725;SDS011;24474;48.906;8.808;2023-03-02T06:24:33;39.47;;;25.42;;
38725;SDS011;24474;48.906;8.808;2023-03-02T06:26:59;41.25;;;25.48;;
38725;SDS011;24474;48.906;8.808;2023-03-02T06:29:24;41.20;;;25.38;;
38725;SDS011;24474;48.906;8.808;2023-03-02T06:31:50;41.38;;;25.17;;
38725;SDS011;24474;48.906;8.808;2023-03-02T06:34:16;37.85;;;25.50;;
38725;SDS011;24474;48.906;8.808;2023-03-02T06:36:41;44.45;;;25.83;;
38725;SDS011;24474;48.906;8.808;2023-03-02T06:39:07;42.47;;;26.98;;
38725;SDS011;24474;48.906;8.808;2023-03-02T06:41:41;40.15;;;25.75;;
38725;SDS011;24474;48.906;8.808;2023-03-02T06:44:07;42.42;;;25.48;;
38725;SDS011;24474;48.906;8.808;2023-03-02T06:46:33;41.75;;;25.88;;
38725;SDS011;24474;48.906;8.808;2023-03-02T06:48:59;43.38;;;27.77;;
38725;SDS011;24474;48.906;8.808;2023-03-02T06:51:24;38.70;;;25.95;;
38725;SDS011;24474;48.906;8.808;2023-03-02T06:53:50;43.25;;;26.48;;
38725;SDS011;24474;48.906;8.808;2023-03-02T06:56:15;44.97;;;27.08;;
38725;SDS011;24474;48.906;8.808;2023-03-02T06:58:41;39.53;;;25.90;;
38725;SDS011;24474;48.906;8.808;2023-03-02T07:01:07;37.10;;;24.73;;
38725;SDS011;24474;48.906;8.808;2023-03-02T07:03:33;44.00;;;27.15;;
38725;SDS011;24474;48.906;8.808;2023-03-02T07:06:00;46.30;;;28.63;;
38725;SDS011;24474;48.906;8.808;2023-03-02T07:08:26;43.95;;;26.42;;
38725;SDS011;24474;48.906;8.808;2023-03-02T07:10:51;43.25;;;26.13;;
38725;SDS011;24474;48.906;8.808;2023-03-02T07:13:17;40.45;;;26.35;;
38725;SDS011;24474;48.906;8.808;2023-03-02T07:15:43;43.20;;;27.48;;
38725;SDS011;24474;48.906;8.808;2023-03-02T07:18:08;42.40;;;25.83;;
38725;SDS011;24474;48.906;8.808;2023-03-02T07:20:34;37.88;;;25.23;;
38725;SDS011;24474;48.906;8.808;2023-03-02T07:22:59;43.92;;;27.67;;
38725;SDS011;24474;48.906;8.808;2023-03-02T07:25:26;42.22;;;26.52;;
38725;SDS011;24474;48.906;8.808;2023-03-02T07:27:51;40.55;;;27.10;;
38725;SDS011;24474;48.906;8.808;2023-03-02T07:30:17;38.10;;;25.70;;
38725;SDS011;24474;48.906;8.808;2023-03-02T07:32:46;39.35;;;26.40;;
38725;SDS011;24474;48.906;8.808;2023-03-02T07:35:12;41.08;;;25.17;;
38725;SDS011;24474;48.906;8.808;2023-03-02T07:37:37;40.20;;;25.27;;
38725;SDS011;24474;48.906;8.808;2023-03-02T07:40:04;38.83;;;25.92;;
38725;SDS011;24474;48.906;8.808;2023-03-02T07:42:32;40.10;;;25.73;;
38725;SDS011;24474;48.906;8.808;2023-03-02T07:44:57;43.35;;;27.00;;
38725;SDS011;24474;48.906;8.808;2023-03-02T07:47:23;39.85;;;26.70;;
38725;SDS011;24474;48.906;8.808;2023-03-02T07:49:49;43.13;;;26.77;;
38725;SDS011;24474;48.906;8.808;2023-03-02T07:52:14;38.85;;;25.95;;
38725;SDS011;24474;48.906;8.808;2023-03-02T07:54:40;38.80;;;25.25;;
38725;SDS011;24474;48.906;8.808;2023-03-02T07:57:06;36.78;;;23.85;;
38725;SDS011;24474;48.906;8.808;2023-03-02T07:59:32;39.45;;;24.63;;
38725;SDS011;24474;48.906;8.808;2023-03-02T08:01:57;44.15;;;25.42;;
38725;SDS011;24474;48.906;8.808;2023-03-02T08:04:23;40.58;;;24.10;;
38725;SDS011;24474;48.906;8.808;2023-03-02T08:06:49;37.60;;;24.45;;
38725;SDS011;24474;48.906;8.808;2023-03-02T08:09:15;38.00;;;24.15;;
38725;SDS011;24474;48.906;8.808;2023-03-02T08:11:41;38.88;;;24.63;;
38725;SDS011;24474;48.906;8.808;2023-03-02T08:14:07;37.47;;;23.88;;
38725;SDS011;24474;48.906;8.808;2023-03-02T08:16:33;42.25;;;25.98;;
38725;SDS011;24474;48.906;8.808;2023-03-02T08:18:58;33.25;;;23.17;;
38725;SDS011;24474;48.906;8.808;2023-03-02T08:21:24;39.15;;;24.30;;
38725;SDS011;24474;48.906;8.808;2023-03-02T08:23:51;40.17;;;25.20;;
38725;SDS011;24474;48.906;8.808;2023-03-02T08:26:18;38.47;;;24.50;;
38725;SDS011;24474;48.906;8.808;2023-03-02T08:28:44;38.67;;;24.38;;
38725;SDS011;24474;48.906;8.808;2023-03-02T08:31:11;37.20;;;24.08;;
38725;SDS011;24474;48.906;8.808;2023-03-02T08:33:37;37.47;;;23.50;;
38725;SDS011;24474;48.906;8.808;2023-03-02T08:36:04;34.83;;;22.85;;
38725;SDS011;24474;48.906;8.808;2023-03-02T08:38:36;34.65;;;23.23;;
38725;SDS011;24474;48.906;8.808;2023-03-02T08:41:02;37.88;;;22.83;;
38725;SDS011;24474;48.906;8.808;2023-03-02T08:43:29;39.45;;;24.20;;
38725;SDS011;24474;48.906;8.808;2023-03-02T08:45:55;36.40;;;23.60;;
38725;SDS011;24474;48.906;8.808;2023-03-02T08:48:24;34.53;;;22.88;;
38725;SDS011;24474;48.906;8.808;2023-03-02T08:50:57;36.13;;;22.95;;
38725;SDS011;24474;48.906;8.808;2023-03-02T08:53:28;36.97;;;22.70;;
38725;SDS011;24474;48.906;8.808;2023-03-02T08:55:56;37.10;;;24.45;;
38725;SDS011;24474;48.906;8.808;2023-03-02T08:58:23;38.78;;;23.50;;
38725;SDS011;24474;48.906;8.808;2023-03-02T09:00:50;41.22;;;25.17;;
38725;SDS011;24474;48.906;8.808;2023-03-02T09:03:16;34.65;;;23.52;;
38725;SDS011;24474;48.906;8.808;2023-03-02T09:05:43;37.25;;;25.00;;
38725;SDS011;24474;48.906;8.808;2023-03-02T09:08:10;33.42;;;22.77;;
38725;SDS011;24474;48.906;8.808;2023-03-02T09:10:37;31.63;;;23.35;;
38725;SDS011;24474;48.906;8.808;2023-03-02T09:13:04;35.63;;;22.98;;
38725;SDS011;24474;48.906;8.808;2023-03-02T09:15:31;33.50;;;22.90;;
38725;SDS011;24474;48.906;8.808;2023-03-02T09:17:58;35.85;;;23.45;;
38725;SDS011;24474;48.906;8.808;2023-03-02T09:20:23;36.08;;;21.95;;
38725;SDS011;24474;48.906;8.808;2023-03-02T09:23:12;35.17;;;23.38;;
38725;SDS011;24474;48.906;8.808;2023-03-02T09:25:39;34.13;;;22.25;;
38725;SDS011;24474;48.906;8.808;2023-03-02T09:28:07;38.83;;;24.30;;
38725;SDS011;24474;48.906;8.808;2023-03-02T09:30:36;35.40;;;23.15;;
38725;SDS011;24474;48.906;8.808;2023-03-02T09:33:03;33.22;;;21.55;;
38725;SDS011;24474;48.906;8.808;2023-03-02T09:35:30;34.55;;;23.48;;
38725;SDS011;24474;48.906;8.808;2023-03-02T09:38:00;35.55;;;22.00;;
38725;SDS011;24474;48.906;8.808;2023-03-02T09:40:29;34.72;;;21.75;;
38725;SDS011;24474;48.906;8.808;2023-03-02T09:54:33;32.90;;;21.85;;
38725;SDS011;24474;48.906;8.808;2023-03-02T09:57:01;33.97;;;21.67;;
38725;SDS011;24474;48.906;8.808;2023-03-02T09:59:39;31.90;;;21.50;;
38725;SDS011;24474;48.906;8.808;2023-03-02T10:02:28;33.77;;;21.87;;
38725;SDS011;24474;48.906;8.808;2023-03-02T10:05:13;36.38;;;22.70;;
38725;SDS011;24474;48.906;8.808;2023-03-02T10:07:53;33.28;;;22.33;;
38725;SDS011;24474;48.906;8.808;2023-03-02T10:10:24;31.38;;;21.90;;
38725;SDS011;24474;48.906;8.808;2023-03-02T10:18:50;35.65;;;22.27;;
38725;SDS011;24474;48.906;8.808;2023-03-02T10:21:44;34.30;;;19.75;;
38725;SDS011;24474;48.906;8.808;2023-03-02T10:26:57;31.25;;;20.40;;
38725;SDS011;24474;48.906;8.808;2023-03-02T10:29:49;32.00;;;20.02;;
38725;SDS011;24474;48.906;8.808;2023-03-02T10:34:50;30.63;;;20.52;;
38725;SDS011;24474;48.906;8.808;2023-03-02T10:37:19;29.90;;;20.90;;
38725;SDS011;24474;48.906;8.808;2023-03-02T10:39:50;30.73;;;20.33;;
38725;SDS011;24474;48.906;8.808;2023-03-02T10:42:27;30.27;;;19.77;;
38725;SDS011;24474;48.906;8.808;2023-03-02T10:48:04;28.35;;;20.23;;
38725;SDS011;24474;48.906;8.808;2023-03-02T10:50:36;28.30;;;19.10;;
38725;SDS011;24474;48.906;8.808;2023-03-02T10:53:04;36.65;;;23.85;;
38725;SDS011;24474;48.906;8.808;2023-03-02T10:55:32;27.80;;;19.65;;
38725;SDS011;24474;48.906;8.808;2023-03-02T10:58:16;27.42;;;19.35;;
38725;SDS011;24474;48.906;8.808;2023-03-02T11:01:04;30.65;;;19.80;;
38725;SDS011;24474;48.906;8.808;2023-03-02T11:03:32;28.88;;;19.23;;
38725;SDS011;24474;48.906;8.808;2023-03-02T11:06:09;29.02;;;19.90;;
38725;SDS011;24474;48.906;8.808;2023-03-02T11:08:42;27.80;;;19.58;;
38725;SDS011;24474;48.906;8.808;2023-03-02T11:11:19;52.83;;;30.30;;
38725;SDS011;24474;48.906;8.808;2023-03-02T11:13:48;29.45;;;20.25;;
38725;SDS011;24474;48.906;8.808;2023-03-02T11:21:43;42.25;;;25.63;;
38725;SDS011;24474;48.906;8.808;2023-03-02T11:24:15;32.30;;;22.20;;
38725;SDS011;24474;48.906;8.808;2023-03-02T11:26:57;41.75;;;26.20;;
38725;SDS011;24474;48.906;8.808;2023-03-02T11:35:02;32.17;;;20.52;;
38725;SDS011;24474;48.906;8.808;2023-03-02T11:37:50;28.65;;;20.42;;
38725;SDS011;24474;48.906;8.808;2023-03-02T11:40:25;32.42;;;20.52;;
38725;SDS011;24474;48.906;8.808;2023-03-02T11:43:13;31.55;;;21.50;;
38725;SDS011;24474;48.906;8.808;2023-03-02T11:45:47;28.27;;;20.70;;
38725;SDS011;24474;48.906;8.808;2023-03-02T11:53:35;29.48;;;19.15;;
38725;SDS011;24474;48.906;8.808;2023-03-02T11:56:17;26.90;;;19.58;;
38725;SDS011;24474;48.906;8.808;2023-03-02T11:58:47;28.33;;;19.65;;
38725;SDS011;24474;48.906;8.808;2023-03-02T12:01:22;28.73;;;19.58;;
38725;SDS011;24474;48.906;8.808;2023-03-02T12:03:51;29.23;;;20.85;;
38725;SDS011;24474;48.906;8.808;2023-03-02T12:06:25;26.05;;;18.92;;
38725;SDS011;24474;48.906;8.808;2023-03-02T12:09:40;26.52;;;19.73;;
38725;SDS011;24474;48.906;8.808;2023-03-02T12:11:42;27.67;;;18.92;;
38725;SDS011;24474;48.906;8.808;2023-03-02T12:14:28;27.65;;;19.33;;
38725;SDS011;24474;48.906;8.808;2023-03-02T12:17:48;32.10;;;20.02;;
38725;SDS011;24474;48.906;8.808;2023-03-02T12:19:53;25.60;;;18.95;;
38725;SDS011;24474;48.906;8.808;2023-03-02T12:22:41;25.95;;;18.65;;
38725;SDS011;24474;48.906;8.808;2023-03-02T12:27:52;29.52;;;19.25;;
38725;SDS011;24474;48.906;8.808;2023-03-02T12:30:25;29.00;;;19.33;;
38725;SDS011;24474;48.906;8.808;2023-03-02T12:35:29;26.17;;;19.45;;
38725;SDS011;24474;48.906;8.808;2023-03-02T12:37:57;29.95;;;19.92;;
38725;SDS011;24474;48.906;8.808;2023-03-02T12:43:34;25.98;;;18.63;;
38725;SDS011;24474;48.906;8.808;2023-03-02T12:52:00;28.92;;;19.50;;
38725;SDS011;24474;48.906;8.808;2023-03-02T12:54:29;32.30;;;19.67;;
38725;SDS011;24474;48.906;8.808;2023-03-02T12:57:17;26.10;;;18.63;;
38725;SDS011;24474;48.906;8.808;2023-03-02T12:59:53;82.95;;;23.80;;
38725;SDS011;24474;48.906;8.808;2023-03-02T13:02:31;27.27;;;19.02;;
38725;SDS011;24474;48.906;8.808;2023-03-02T13:05:02;26.27;;;18.35;;
38725;SDS011;24474;48.906;8.808;2023-03-02T13:07:43;25.75;;;18.13;;
38725;SDS011;24474;48.906;8.808;2023-03-02T13:10:26;34.97;;;20.38;;
38725;SDS011;24474;48.906;8.808;2023-03-02T13:12:58;27.50;;;19.80;;
38725;SDS011;24474;48.906;8.808;2023-03-02T13:15:24;34.33;;;20.48;;
38725;SDS011;24474;48.906;8.808;2023-03-02T13:17:56;35.20;;;19.73;;
38725;SDS011;24474;48.906;8.808;2023-03-02T13:20:25;35.47;;;20.85;;
38725;SDS011;24474;48.906;8.808;2023-03-02T13:22:53;31.10;;;19.15;;
38725;SDS011;24474;48.906;8.808;2023-03-02T13:25:22;27.20;;;18.83;;
38725;SDS011;24474;48.906;8.808;2023-03-02T13:27:53;34.72;;;19.60;;
38725;SDS011;24474;48.906;8.808;2023-03-02T13:30:29;33.88;;;21.40;;
38725;SDS011;24474;48.906;8.808;2023-03-02T13:32:58;30.10;;;18.83;;
38725;SDS011;24474;48.906;8.808;2023-03-02T13:35:30;32.50;;;20.13;;
38725;SDS011;24474;48.906;8.808;2023-03-02T13:38:13;30.00;;;19.35;;
38725;SDS011;24474;48.906;8.808;2023-03-02T13:40:44;27.17;;;18.85;;
38725;SDS011;24474;48.906;8.808;2023-03-02T13:48:20;27.33;;;19.15;;
38725;SDS011;24474;48.906;8.808;2023-03-02T13:53:25;26.80;;;18.08;;
38725;SDS011;24474;48.906;8.808;2023-03-02T13:55:54;27.15;;;18.85;;
38725;SDS011;24474;48.906;8.808;2023-03-02T13:58:21;27.90;;;20.25;;
38725;SDS011;24474;48.906;8.808;2023-03-02T14:00:48;31.75;;;22.42;;
38725;SDS011;24474;48.906;8.808;2023-03-02T14:03:28;33.70;;;21.77;;
38725;SDS011;24474;48.906;8.808;2023-03-02T14:05:55;28.65;;;20.25;;
38725;SDS011;24474;48.906;8.808;2023-03-02T14:08:22;27.50;;;19.08;;
38725;SDS011;24474;48.906;8.808;2023-03-02T14:10:49;28.20;;;19.98;;
38725;SDS011;24474;48.906;8.808;2023-03-02T14:13:20;27.88;;;18.83;;
38725;SDS011;24474;48.906;8.808;2023-03-02T14:15:50;29.05;;;19.95;;
38725;SDS011;24474;48.906;8.808;2023-03-02T14:21:03;27.05;;;19.52;;
38725;SDS011;24474;48.906;8.808;2023-03-02T14:23:31;26.17;;;18.92;;
38725;SDS011;24474;48.906;8.808;2023-03-02T14:25:57;26.40;;;18.08;;
38725;SDS011;24474;48.906;8.808;2023-03-02T14:28:25;26.65;;;19.20;;
38725;SDS011;24474;48.906;8.808;2023-03-02T14:30:56;23.33;;;18.23;;
38725;SDS011;24474;48.906;8.808;2023-03-02T14:33:24;28.42;;;18.25;;
38725;SDS011;24474;48.906;8.808;2023-03-02T14:35:51;25.10;;;18.95;;
38725;SDS011;24474;48.906;8.808;2023-03-02T14:38:20;25.10;;;19.10;;
38725;SDS011;24474;48.906;8.808;2023-03-02T14:40:47;25.35;;;18.15;;
38725;SDS011;24474;48.906;8.808;2023-03-02T14:43:15;25.73;;;18.30;;
38725;SDS011;24474;48.906;8.808;2023-03-02T14:45:44;31.27;;;19.33;;
38725;SDS011;24474;48.906;8.808;2023-03-02T14:48:10;29.52;;;19.42;;
38725;SDS011;24474;48.906;8.808;2023-03-02T14:50:38;26.45;;;19.50;;
38725;SDS011;24474;48.906;8.808;2023-03-02T14:53:11;29.73;;;18.58;;
38725;SDS011;24474;48.906;8.808;2023-03-02T14:55:53;25.20;;;18.52;;
38725;SDS011;24474;48.906;8.808;2023-03-02T14:58:24;33.20;;;19.83;;
38725;SDS011;24474;48.906;8.808;2023-03-02T15:00:56;34.40;;;19.35;;
38725;SDS011;24474;48.906;8.808;2023-03-02T15:03:23;28.90;;;19.67;;
38725;SDS011;24474;48.906;8.808;2023-03-02T15:05:52;27.73;;;18.58;;
38725;SDS011;24474;48.906;8.808;2023-03-02T15:08:19;29.08;;;19.30;;
38725;SDS011;24474;48.906;8.808;2023-03-02T15:10:47;27.38;;;19.35;;
38725;SDS011;24474;48.906;8.808;2023-03-02T15:13:15;30.88;;;19.30;;
38725;SDS011;24474;48.906;8.808;2023-03-02T15:15:42;26.77;;;18.88;;
38725;SDS011;24474;48.906;8.808;2023-03-02T15:18:08;29.25;;;19.52;;
38725;SDS011;24474;48.906;8.808;2023-03-02T15:20:37;26.58;;;19.30;;
38725;SDS011;24474;48.906;8.808;2023-03-02T15:23:04;29.38;;;20.40;;
38725;SDS011;24474;48.906;8.808;2023-03-02T15:25:30;26.55;;;18.75;;
38725;SDS011;24474;48.906;8.808;2023-03-02T15:27:57;26.95;;;19.48;;
38725;SDS011;24474;48.906;8.808;2023-03-02T15:30:24;31.05;;;20.13;;
38725;SDS011;24474;48.906;8.808;2023-03-02T15:32:56;24.83;;;18.65;;
38725;SDS011;24474;48.906;8.808;2023-03-02T15:35:25;25.55;;;18.80;;
38725;SDS011;24474;48.906;8.808;2023-03-02T15:37:53;23.52;;;17.17;;
38725;SDS011;24474;48.906;8.808;2023-03-02T15:40:22;26.58;;;18.17;;
38725;SDS011;24474;48.906;8.808;2023-03-02T15:42:49;27.52;;;19.33;;
38725;SDS011;24474;48.906;8.808;2023-03-02T15:45:17;29.00;;;18.00;;
38725;SDS011;24474;48.906;8.808;2023-03-02T15:47:43;28.20;;;19.35;;
38725;SDS011;24474;48.906;8.808;2023-03-02T15:50:09;24.42;;;18.40;;